Terminal Aerodrome Forecast
Issued by NWS Mt. Holly, NJ

Home | Current Version | Previous Version | Text Only | Print | Product List | Glossary On
Versions: 1 2 3 4 5 6 7 8 9 10 11 12 13 14 15 16 17 18
143
FTUS41 KPHI 100113 AAA
TAFRDG
TAF AMD
KRDG 100113Z 1001/1024 VRB03KT 4SM -SN OVC025
      TEMPO 1001/1004 1SM -SN OVC008
     FM100400 VRB03KT 3SM -SN OVC015
     FM100600 30005KT P6SM VCSH OVC010
     FM100800 29005KT P6SM OVC025
     FM101100 29007KT P6SM SCT020 BKN050
     FM101400 29012G20KT P6SM BKN050=

USA.gov is the U.S. government's official web portal to all federal, state and local government web resources and services.